createdAt,value
2023-05-09T00:01:14.565Z,100738.69
2023-05-09T00:03:47.811Z,100745.00
2023-05-09T00:06:20.712Z,100742.70
2023-05-09T00:08:53.525Z,100743.02
2023-05-09T00:11:26.481Z,100756.38
2023-05-09T00:13:59.375Z,100753.56
2023-05-09T00:16:33.481Z,100748.92
2023-05-09T00:19:07.307Z,100752.12
2023-05-09T00:21:40.143Z,100759.73
2023-05-09T00:24:12.886Z,100763.27
2023-05-09T00:26:45.624Z,100759.42
2023-05-09T00:29:18.379Z,100766.66
2023-05-09T00:31:51.220Z,100765.04
2023-05-09T00:34:24.457Z,100757.48
2023-05-09T00:36:57.294Z,100764.31
2023-05-09T00:39:30.284Z,100772.03
2023-05-09T00:42:03.851Z,100773.75
2023-05-09T00:44:36.801Z,100769.93
2023-05-09T00:47:10.095Z,100776.03
2023-05-09T00:49:42.947Z,100773.47
2023-05-09T00:52:15.806Z,100768.45
2023-05-09T00:54:48.886Z,100776.37
2023-05-09T00:57:21.971Z,100777.05
2023-05-09T00:59:55.048Z,100773.03
2023-05-09T01:02:28.092Z,100775.26
2023-05-09T01:05:02.177Z,100771.45
2023-05-09T01:07:42.287Z,100766.23
2023-05-09T01:10:28.615Z,100770.94
2023-05-09T01:13:06.466Z,100766.23
2023-05-09T01:15:44.074Z,100763.52
2023-05-09T01:18:35.931Z,100767.33
2023-05-09T01:21:16.165Z,100772.92
2023-05-09T01:24:02.424Z,100768.22
2023-05-09T01:26:54.641Z,100767.33
2023-05-09T01:29:55.584Z,100761.80
2023-05-09T01:32:30.520Z,100759.97
2023-05-09T01:35:05.358Z,100764.86
2023-05-09T01:37:40.611Z,100761.55
2023-05-09T01:40:20.422Z,100754.11
2023-05-09T01:43:06.030Z,100760.52
2023-05-09T01:45:40.222Z,100757.02
2023-05-09T01:48:13.584Z,100753.00
2023-05-09T01:50:47.464Z,100749.61
2023-05-09T01:53:20.557Z,100741.27
2023-05-09T01:55:54.025Z,100743.47
2023-05-09T01:58:28.378Z,100744.28
2023-05-09T02:01:00.563Z,100746.89
2023-05-09T02:03:34.464Z,100741.68
2023-05-09T02:06:07.721Z,100739.34
2023-05-09T02:08:41.406Z,100745.48
2023-05-09T02:11:14.162Z,100742.05
2023-05-09T02:13:47.055Z,100741.16
2023-05-09T02:16:21.326Z,100745.97
2023-05-09T02:18:54.137Z,100749.28
2023-05-09T02:21:29.185Z,100753.87
2023-05-09T02:24:03.116Z,100754.95
2023-05-09T02:26:37.893Z,100754.44
2023-05-09T02:29:11.188Z,100760.17
2023-05-09T02:31:44.961Z,100760.17
2023-05-09T02:34:19.219Z,100766.91
2023-05-09T02:36:52.004Z,100762.31
2023-05-09T02:39:24.969Z,100759.81
2023-05-09T02:42:00.761Z,100758.73
2023-05-09T02:44:33.602Z,100764.53
2023-05-09T02:47:07.860Z,100761.14
2023-05-09T02:49:41.057Z,100758.84
2023-05-09T02:52:13.953Z,100761.45
2023-05-09T02:54:48.600Z,100757.53
2023-05-09T02:57:21.553Z,100761.34
2023-05-09T02:59:54.274Z,100753.62
2023-05-09T03:02:27.770Z,100760.73
2023-05-09T03:05:01.455Z,100760.06
2023-05-09T03:07:35.249Z,100755.44
2023-05-09T03:10:11.027Z,100762.27
2023-05-09T03:12:44.060Z,100760.30
2023-05-09T03:15:17.381Z,100758.80
2023-05-09T03:17:51.144Z,100762.70
2023-05-09T03:20:27.651Z,100765.83
2023-05-09T03:23:00.846Z,100760.51
2023-05-09T03:25:33.819Z,100766.23
2023-05-09T03:28:07.405Z,100762.70
2023-05-09T03:30:40.851Z,100761.59
2023-05-09T03:33:15.866Z,100762.22
2023-05-09T03:35:48.864Z,100762.44
2023-05-09T03:38:23.964Z,100761.34
2023-05-09T03:40:56.925Z,100771.17
2023-05-09T03:43:30.745Z,100766.95
2023-05-09T03:46:04.331Z,100768.98
2023-05-09T03:48:37.687Z,100766.70
2023-05-09T03:51:12.410Z,100766.02
2023-05-09T03:53:48.165Z,100767.02
2023-05-09T03:56:21.188Z,100765.82
2023-05-09T03:58:54.718Z,100768.84
2023-05-09T04:01:28.083Z,100764.42
2023-05-09T04:04:01.608Z,100764.05
2023-05-09T04:06:37.382Z,100764.16
2023-05-09T04:09:11.765Z,100772.19
2023-05-09T04:11:46.854Z,100769.80
2023-05-09T04:14:20.502Z,100772.61
2023-05-09T04:16:53.510Z,100768.98
2023-05-09T04:19:26.288Z,100777.53
2023-05-09T04:21:59.583Z,100773.72
2023-05-09T04:24:32.824Z,100775.54
2023-05-09T04:27:05.873Z,100778.25
2023-05-09T04:29:39.561Z,100781.86
2023-05-09T04:32:12.694Z,100778.25
2023-05-09T04:34:45.561Z,100779.35
2023-05-09T04:37:20.419Z,100778.77
2023-05-09T04:39:53.246Z,100778.36
2023-05-09T04:42:27.747Z,100782.37
2023-05-09T04:45:01.084Z,100785.50
2023-05-09T04:47:34.569Z,100783.38
2023-05-09T04:50:09.417Z,100781.80
2023-05-09T04:52:42.980Z,100785.91
2023-05-09T04:55:16.240Z,100789.63
2023-05-09T04:57:50.972Z,100796.35
2023-05-09T05:00:24.513Z,100794.53
2023-05-09T05:02:57.413Z,100794.25
2023-05-09T05:05:32.461Z,100794.25
2023-05-09T05:08:06.507Z,100791.12
2023-05-09T05:10:40.933Z,100800.68
2023-05-09T05:13:15.830Z,100789.82
2023-05-09T05:15:50.659Z,100794.94
2023-05-09T05:18:25.180Z,100790.02
2023-05-09T05:20:58.953Z,100782.89
2023-05-09T05:23:31.989Z,100785.09
2023-05-09T05:26:05.566Z,100786.50
2023-05-09T05:28:38.970Z,100788.63
2023-05-09T05:31:11.831Z,100784.20
2023-05-09T05:33:44.667Z,100786.30
2023-05-09T05:36:17.563Z,100794.55
2023-05-09T05:38:51.842Z,100804.31
2023-05-09T05:41:24.594Z,100804.09
2023-05-09T05:43:57.841Z,100804.98
2023-05-09T05:46:31.039Z,100804.80
2023-05-09T05:49:03.821Z,100806.31
2023-05-09T05:51:38.854Z,100803.70
2023-05-09T05:54:12.052Z,100800.88
2023-05-09T05:56:44.932Z,100806.69
2023-05-09T05:59:18.094Z,100810.11
2023-05-09T06:01:51.562Z,100812.10
2023-05-09T06:04:25.237Z,100815.33
2023-05-09T06:06:58.934Z,100803.05
2023-05-09T06:09:32.029Z,100813.61
2023-05-09T06:12:05.243Z,100808.58
2023-05-09T06:14:38.718Z,100806.67
2023-05-09T06:17:12.204Z,100802.25
2023-05-09T06:19:45.220Z,100806.09
2023-05-09T06:22:18.713Z,100808.70
2023-05-09T06:24:52.582Z,100798.45
2023-05-09T06:27:25.884Z,100809.30
2023-05-09T06:29:58.986Z,100806.75
2023-05-09T06:32:31.921Z,100805.30
2023-05-09T06:35:04.896Z,100808.91
2023-05-09T06:37:37.744Z,100810.27
2023-05-09T06:40:11.726Z,100791.73
2023-05-09T06:42:45.657Z,100794.41
2023-05-09T06:45:20.268Z,100794.45
2023-05-09T06:47:53.520Z,100793.80
2023-05-09T06:50:26.488Z,100787.30
2023-05-09T06:52:59.480Z,100792.72
2023-05-09T06:55:32.286Z,100785.28
2023-05-09T06:58:06.116Z,100782.94
2023-05-09T07:00:39.048Z,100785.89
2023-05-09T07:03:12.400Z,100786.16
2023-05-09T07:05:45.263Z,100779.69
2023-05-09T07:08:18.509Z,100780.85
2023-05-09T07:10:51.366Z,100778.97
2023-05-09T07:13:24.582Z,100777.81
2023-05-09T07:15:58.106Z,100771.65
2023-05-09T07:18:31.115Z,100767.36
2023-05-09T07:21:04.072Z,100780.98
2023-05-09T07:23:37.820Z,100780.89
2023-05-09T07:26:10.712Z,100780.18
2023-05-09T07:28:44.178Z,100777.84
2023-05-09T07:31:17.149Z,100773.85
2023-05-09T07:33:50.233Z,100768.83
2023-05-09T07:36:23.380Z,100762.98
2023-05-09T07:38:56.305Z,100759.67
2023-05-09T07:41:29.090Z,100748.20
2023-05-09T07:47:46.998Z,100747.08
2023-05-09T07:50:20.154Z,100755.13
2023-05-09T07:52:53.380Z,100756.52
2023-05-09T07:55:26.561Z,100749.24
2023-05-09T07:57:59.854Z,100746.45
2023-05-09T08:00:33.317Z,100746.20
2023-05-09T08:03:06.592Z,100744.16
2023-05-09T08:05:41.429Z,100747.42
2023-05-09T08:08:14.588Z,100747.05
2023-05-09T08:10:47.763Z,100740.53
2023-05-09T08:13:22.644Z,100737.27
2023-05-09T08:15:55.954Z,100730.97
2023-05-09T08:18:29.282Z,100727.67
2023-05-09T08:21:02.529Z,100717.19
2023-05-09T08:23:36.316Z,100717.14
2023-05-09T08:26:09.695Z,100721.28
2023-05-09T08:28:42.953Z,100723.36
2023-05-09T08:31:16.728Z,100713.92
2023-05-09T08:33:49.896Z,100720.55
2023-05-09T08:36:23.137Z,100723.34
2023-05-09T08:38:56.265Z,100714.03
2023-05-09T08:41:29.828Z,100713.10
2023-05-09T08:44:03.297Z,100708.19
2023-05-09T08:46:42.170Z,100707.52
2023-05-09T08:49:16.019Z,100710.48
2023-05-09T08:51:50.972Z,100706.80
2023-05-09T08:54:26.111Z,100710.16
2023-05-09T08:56:59.576Z,100699.42
2023-05-09T08:59:35.585Z,100699.25
2023-05-09T09:02:09.481Z,100705.64
2023-05-09T09:04:43.001Z,100707.16
2023-05-09T09:07:17.444Z,100712.17
2023-05-09T09:09:52.450Z,100708.95
2023-05-09T09:12:26.557Z,100710.92
2023-05-09T09:15:04.125Z,100711.64
2023-05-09T09:17:39.690Z,100707.44
2023-05-09T09:20:15.965Z,100706.94
2023-05-09T09:22:51.142Z,100704.83
2023-05-09T09:25:24.339Z,100702.14
2023-05-09T09:27:57.589Z,100694.20
2023-05-09T09:30:30.857Z,100688.80
2023-05-09T09:33:04.279Z,100695.78
2023-05-09T09:35:43.842Z,100701.74
2023-05-09T09:38:18.037Z,100697.34
2023-05-09T09:40:59.501Z,100687.19
2023-05-09T09:43:33.837Z,100687.26
2023-05-09T09:46:07.838Z,100693.21
2023-05-09T09:48:41.052Z,100693.38
2023-05-09T09:51:14.424Z,100688.16
2023-05-09T09:53:47.684Z,100687.16
2023-05-09T09:56:22.349Z,100699.22
2023-05-09T09:59:11.436Z,100697.10
2023-05-09T10:02:00.800Z,100689.16
2023-05-09T10:04:38.318Z,100697.13
2023-05-09T10:07:15.155Z,100700.56
2023-05-09T10:09:49.774Z,100695.23
2023-05-09T10:12:23.966Z,100696.87
2023-05-09T10:14:57.435Z,100691.06
2023-05-09T10:17:32.968Z,100685.97
2023-05-09T10:20:08.355Z,100686.31
2023-05-09T10:22:42.378Z,100685.73
2023-05-09T10:25:29.609Z,100683.45
2023-05-09T10:28:03.529Z,100682.78
2023-05-09T10:30:40.173Z,100682.53
2023-05-09T10:33:14.621Z,100688.37
2023-05-09T10:35:49.238Z,100692.22
2023-05-09T10:38:22.765Z,100683.34
2023-05-09T10:40:56.378Z,100677.37
2023-05-09T10:46:05.521Z,100679.33
2023-05-09T10:48:40.407Z,100677.63
2023-05-09T10:51:14.311Z,100676.78
2023-05-09T10:53:50.194Z,100675.09
2023-05-09T10:56:36.741Z,100680.25
2023-05-09T10:59:37.802Z,100680.34
2023-05-09T11:02:24.602Z,100683.02
2023-05-09T11:05:20.589Z,100683.99
2023-05-09T11:08:23.142Z,100687.03
2023-05-09T11:10:58.179Z,100685.00
2023-05-09T11:13:33.836Z,100679.84
2023-05-09T11:16:11.222Z,100680.14
2023-05-09T11:18:54.829Z,100679.09
2023-05-09T11:21:29.503Z,100687.28
2023-05-09T11:24:02.749Z,100675.07
2023-05-09T11:26:36.029Z,100671.73
2023-05-09T11:29:10.365Z,100665.26
2023-05-09T11:31:51.140Z,100669.19
2023-05-09T11:34:25.200Z,100670.67
2023-05-09T11:37:14.044Z,100668.18
2023-05-09T11:40:05.329Z,100659.00
2023-05-09T11:42:38.599Z,100653.38
2023-05-09T11:45:13.826Z,100656.72
2023-05-09T11:47:49.937Z,100662.30
2023-05-09T11:50:23.513Z,100656.97
2023-05-09T11:52:56.954Z,100651.64
2023-05-09T11:55:34.212Z,100655.23
2023-05-09T11:58:09.401Z,100658.87
2023-05-09T12:00:48.701Z,100650.16
2023-05-09T12:03:22.560Z,100652.15
2023-05-09T12:05:58.029Z,100653.67
2023-05-09T12:08:31.359Z,100645.09
2023-05-09T12:11:11.247Z,100653.26
2023-05-09T12:13:53.386Z,100652.37
2023-05-09T12:16:26.548Z,100658.11
2023-05-09T12:18:59.812Z,100647.94
2023-05-09T12:21:33.733Z,100648.09
2023-05-09T12:24:07.476Z,100652.03
2023-05-09T12:26:41.804Z,100650.72
2023-05-09T12:29:14.536Z,100650.25
2023-05-09T12:31:49.299Z,100644.42
2023-05-09T12:34:22.529Z,100649.38
2023-05-09T12:36:55.934Z,100645.78
2023-05-09T12:39:29.381Z,100648.39
2023-05-09T12:42:02.642Z,100643.54
2023-05-09T12:44:35.935Z,100642.14
2023-05-09T12:47:09.218Z,100648.14
2023-05-09T12:49:42.591Z,100649.66
2023-05-09T12:52:20.962Z,100655.16
2023-05-09T12:54:55.329Z,100656.63
2023-05-09T12:57:31.428Z,100650.87
2023-05-09T13:00:06.775Z,100662.58
2023-05-09T13:02:45.075Z,100657.67
2023-05-09T13:05:21.052Z,100655.30
2023-05-09T13:07:58.178Z,100652.09
2023-05-09T13:10:31.760Z,100653.31
2023-05-09T13:13:06.601Z,100654.28
2023-05-09T13:15:39.800Z,100655.42
2023-05-09T13:18:14.030Z,100664.12
2023-05-09T13:20:52.399Z,100662.22
2023-05-09T13:23:28.818Z,100663.14
2023-05-09T13:26:01.956Z,100666.56
2023-05-09T13:28:35.464Z,100669.00
2023-05-09T13:31:08.822Z,100668.15
2023-05-09T13:33:42.661Z,100676.91
2023-05-09T13:36:18.684Z,100685.91
2023-05-09T13:38:51.974Z,100681.53
2023-05-09T13:41:25.323Z,100676.77
2023-05-09T13:43:58.526Z,100683.84
2023-05-09T13:46:31.696Z,100674.73
2023-05-09T13:49:04.894Z,100685.34
2023-05-09T13:51:38.758Z,100685.78
2023-05-09T13:54:16.302Z,100691.05
2023-05-09T13:56:49.605Z,100695.50
2023-05-09T13:59:22.894Z,100693.66
2023-05-09T14:01:58.832Z,100685.25
2023-05-09T14:04:32.893Z,100691.83
2023-05-09T14:07:07.199Z,100692.76
2023-05-09T14:09:40.793Z,100696.30
2023-05-09T14:12:16.665Z,100696.77
2023-05-09T14:14:49.724Z,100695.27
2023-05-09T14:17:22.917Z,100702.92
2023-05-09T14:19:56.271Z,100703.14
2023-05-09T14:22:29.533Z,100702.05
2023-05-09T14:25:02.645Z,100703.30
2023-05-09T14:27:39.830Z,100704.49
2023-05-09T14:30:13.851Z,100713.54
2023-05-09T14:32:51.228Z,100712.13
2023-05-09T14:35:24.465Z,100710.34
2023-05-09T14:37:57.589Z,100704.20
2023-05-09T14:40:32.365Z,100702.00
2023-05-09T14:43:06.256Z,100709.64
2023-05-09T14:45:39.765Z,100706.03
2023-05-09T14:48:15.883Z,100706.53
2023-05-09T14:50:47.831Z,100710.56
2023-05-09T14:53:22.925Z,100706.03
2023-05-09T14:55:56.578Z,100710.78
2023-05-09T14:58:31.279Z,100708.55
2023-05-09T15:01:04.839Z,100704.16
2023-05-09T15:03:39.666Z,100705.05
2023-05-09T15:06:14.875Z,100707.66
2023-05-09T15:08:48.059Z,100715.39
2023-05-09T15:11:22.531Z,100702.03
2023-05-09T15:13:56.648Z,100709.35
2023-05-09T15:16:29.919Z,100706.95
2023-05-09T15:19:05.139Z,100711.59
2023-05-09T15:21:38.687Z,100720.12
2023-05-09T15:24:12.502Z,100714.19
2023-05-09T15:26:46.053Z,100713.30
2023-05-09T15:29:19.461Z,100712.88
2023-05-09T15:31:52.814Z,100714.19
2023-05-09T15:34:26.018Z,100709.69
2023-05-09T15:36:59.163Z,100709.59
2023-05-09T15:39:36.445Z,100711.48
2023-05-09T15:42:12.294Z,100714.30
2023-05-09T15:44:47.618Z,100719.52
2023-05-09T15:47:20.922Z,100715.92
2023-05-09T15:49:54.116Z,100715.81
2023-05-09T15:52:28.256Z,100710.70
2023-05-09T15:55:02.084Z,100707.05
2023-05-09T15:57:36.504Z,100715.20
2023-05-09T16:00:10.512Z,100716.40
2023-05-09T16:02:45.986Z,100715.41
2023-05-09T16:05:19.591Z,100712.28
2023-05-09T16:07:53.803Z,100717.61
2023-05-09T16:10:27.302Z,100720.01
2023-05-09T16:13:00.828Z,100720.38
2023-05-09T16:15:34.417Z,100717.88
2023-05-09T16:18:07.624Z,100721.68
2023-05-09T16:20:42.347Z,100715.36
2023-05-09T16:23:15.579Z,100719.27
2023-05-09T16:25:50.113Z,100714.84
2023-05-09T16:28:27.700Z,100714.73
2023-05-09T16:31:08.608Z,100715.25
2023-05-09T16:33:41.972Z,100719.55
2023-05-09T16:36:18.349Z,100719.55
2023-05-09T16:38:51.470Z,100719.44
2023-05-09T16:41:24.553Z,100719.75
2023-05-09T16:43:59.075Z,100710.82
2023-05-09T16:46:32.279Z,100715.72
2023-05-09T16:49:05.444Z,100719.12
2023-05-09T16:51:38.977Z,100717.23
2023-05-09T16:54:12.605Z,100717.02
2023-05-09T16:56:45.982Z,100714.87
2023-05-09T16:59:20.503Z,100715.65
2023-05-09T17:01:54.246Z,100714.11
2023-05-09T17:04:27.779Z,100721.61
2023-05-09T17:07:01.079Z,100717.59
2023-05-09T17:09:34.644Z,100720.20
2023-05-09T17:12:08.184Z,100719.52
2023-05-09T17:14:41.960Z,100725.22
2023-05-09T17:17:15.819Z,100721.83
2023-05-09T17:19:49.085Z,100720.83
2023-05-09T17:22:22.262Z,100720.83
2023-05-09T17:24:56.126Z,100729.02
2023-05-09T17:27:29.321Z,100729.02
2023-05-09T17:30:02.590Z,100732.45
2023-05-09T17:32:37.704Z,100728.43
2023-05-09T17:35:12.582Z,100730.33
2023-05-09T17:37:45.960Z,100726.04
2023-05-09T17:40:19.203Z,100728.75
2023-05-09T17:42:53.202Z,100732.66
2023-05-09T17:45:27.589Z,100730.95
2023-05-09T17:48:01.701Z,100733.04
2023-05-09T17:50:35.371Z,100730.06
2023-05-09T17:53:09.748Z,100726.94
2023-05-09T17:55:44.627Z,100729.33
2023-05-09T17:58:17.784Z,100727.39
2023-05-09T18:00:52.504Z,100733.91
2023-05-09T18:03:26.011Z,100737.04
2023-05-09T18:06:00.755Z,100728.22
2023-05-09T18:08:33.894Z,100732.13
2023-05-09T18:11:06.995Z,100727.07
2023-05-09T18:13:40.444Z,100729.84
2023-05-09T18:16:13.674Z,100728.83
2023-05-09T18:18:46.944Z,100725.91
2023-05-09T18:21:20.454Z,100725.80
2023-05-09T18:23:53.913Z,100723.38
2023-05-09T18:26:28.751Z,100723.27
2023-05-09T18:29:01.866Z,100723.16
2023-05-09T18:31:37.312Z,100719.25
2023-05-09T18:34:11.118Z,100717.95
2023-05-09T18:36:44.718Z,100717.84
2023-05-09T18:39:18.008Z,100715.13
2023-05-09T18:41:51.457Z,100711.22
2023-05-09T18:44:24.600Z,100709.40
2023-05-09T18:46:58.516Z,100705.68
2023-05-09T18:49:31.644Z,100708.59
2023-05-09T18:52:04.914Z,100705.02
2023-05-09T18:54:38.518Z,100704.02
2023-05-09T18:57:11.812Z,100703.61
2023-05-09T18:59:45.963Z,100702.72
2023-05-09T19:02:19.691Z,100701.41
2023-05-09T19:04:52.889Z,100695.98
2023-05-09T19:07:26.794Z,100693.16
2023-05-09T19:10:00.768Z,100696.33
2023-05-09T19:12:35.638Z,100692.20
2023-05-09T19:15:10.511Z,100689.48
2023-05-09T19:17:45.732Z,100683.80
2023-05-09T19:20:19.057Z,100681.45
2023-05-09T19:22:52.464Z,100682.38
2023-05-09T19:25:26.109Z,100681.45
2023-05-09T19:27:59.294Z,100681.08
2023-05-09T19:30:32.855Z,100679.55
2023-05-09T19:33:06.372Z,100678.14
2023-05-09T19:35:40.280Z,100682.83
2023-05-09T19:38:13.566Z,100675.80
2023-05-09T19:40:46.710Z,100674.13
2023-05-09T19:43:20.102Z,100669.81
2023-05-09T19:45:53.664Z,100665.02
2023-05-09T19:48:27.049Z,100670.70
2023-05-09T19:51:00.699Z,100669.70
2023-05-09T19:53:33.927Z,100669.70
2023-05-09T19:56:08.358Z,100661.48
2023-05-09T19:58:40.885Z,100666.31
2023-05-09T20:01:14.141Z,100662.19
2023-05-09T20:03:51.965Z,100661.19
2023-05-09T20:06:26.154Z,100662.97
2023-05-09T20:08:59.456Z,100664.58
2023-05-09T20:11:32.702Z,100660.97
2023-05-09T20:14:06.072Z,100656.77
2023-05-09T20:16:39.878Z,100663.87
2023-05-09T20:19:16.070Z,100657.98
2023-05-09T20:21:49.189Z,100658.20
2023-05-09T20:24:22.910Z,100659.73
2023-05-09T20:26:55.994Z,100654.52
2023-05-09T20:29:29.647Z,100656.91
2023-05-09T20:32:03.043Z,100656.39
2023-05-09T20:34:36.277Z,100649.50
2023-05-09T20:37:09.259Z,100653.41
2023-05-09T20:39:42.458Z,100655.80
2023-05-09T20:42:15.836Z,100654.16
2023-05-09T20:44:50.953Z,100650.93
2023-05-09T20:47:24.031Z,100648.62
2023-05-09T20:49:58.509Z,100652.01
2023-05-09T20:52:31.852Z,100651.78
2023-05-09T20:55:07.155Z,100645.98
2023-05-09T20:57:41.089Z,100640.67
2023-05-09T21:00:15.813Z,100648.81
2023-05-09T21:02:49.532Z,100648.62
2023-05-09T21:05:22.834Z,100640.14
2023-05-09T21:07:56.066Z,100644.94
2023-05-09T21:10:29.265Z,100637.02
2023-05-09T21:13:02.736Z,100632.78
2023-05-09T21:15:36.047Z,100632.38
2023-05-09T21:18:09.254Z,100635.20
2023-05-09T21:20:42.617Z,100635.72
2023-05-09T21:23:15.870Z,100628.58
2023-05-09T21:25:49.094Z,100622.94
2023-05-09T21:28:22.652Z,100623.23
2023-05-09T21:30:56.419Z,100619.89
2023-05-09T21:33:29.661Z,100618.21
2023-05-09T21:36:02.890Z,100613.49
2023-05-09T21:38:36.319Z,100609.89
2023-05-09T21:41:10.396Z,100610.18
2023-05-09T21:43:43.602Z,100611.48
2023-05-09T21:46:17.085Z,100610.08
2023-05-09T21:48:50.219Z,100610.08
2023-05-09T21:51:23.624Z,100610.18
2023-05-09T21:53:56.647Z,100606.87
2023-05-09T21:56:29.716Z,100604.38
2023-05-09T21:59:02.792Z,100603.08
2023-05-09T22:01:35.971Z,100600.33
2023-05-09T22:04:09.127Z,100596.42
2023-05-09T22:06:42.965Z,100589.96
2023-05-09T22:09:16.283Z,100591.55
2023-05-09T22:11:49.357Z,100590.03
2023-05-09T22:14:22.456Z,100584.91
2023-05-09T22:16:55.868Z,100584.58
2023-05-09T22:19:29.217Z,100586.44
2023-05-09T22:22:02.443Z,100584.95
2023-05-09T22:24:36.758Z,100576.63
2023-05-09T22:27:12.973Z,100580.75
2023-05-09T22:29:46.901Z,100579.16
2023-05-09T22:32:20.074Z,100573.95
2023-05-09T22:34:54.379Z,100573.65
2023-05-09T22:37:26.564Z,100571.56
2023-05-09T22:40:01.403Z,100569.48
2023-05-09T22:42:35.044Z,100574.47
2023-05-09T22:45:09.471Z,100566.81
2023-05-09T22:47:43.021Z,100560.13
2023-05-09T22:50:16.297Z,100557.30
2023-05-09T22:52:50.224Z,100557.19
2023-05-09T22:55:24.005Z,100555.37
2023-05-09T22:57:57.308Z,100551.06
2023-05-09T23:00:30.475Z,100548.97
2023-05-09T23:03:06.599Z,100548.87
2023-05-09T23:05:40.080Z,100550.84
2023-05-09T23:08:13.361Z,100547.05
2023-05-09T23:10:47.066Z,100547.05
2023-05-09T23:13:20.278Z,100546.89
2023-05-09T23:15:54.156Z,100547.27
2023-05-09T23:18:28.500Z,100545.59
2023-05-09T23:21:01.762Z,100543.88
2023-05-09T23:23:35.077Z,100544.29
2023-05-09T23:26:08.676Z,100536.08
2023-05-09T23:28:42.360Z,100543.88
2023-05-09T23:31:16.050Z,100541.28
2023-05-09T23:33:49.319Z,100531.66
2023-05-09T23:36:22.472Z,100531.66
2023-05-09T23:38:56.069Z,100532.98
2023-05-09T23:41:29.503Z,100535.22
2023-05-09T23:44:03.828Z,100536.81
2023-05-09T23:46:37.146Z,100531.39
2023-05-09T23:49:10.420Z,100537.68
2023-05-09T23:51:43.591Z,100530.62
2023-05-09T23:54:16.938Z,100534.08
2023-05-09T23:56:50.698Z,100529.44
2023-05-09T23:59:23.806Z,100530.25
